Time;durP1;ratioP1;P1;durP2;ratioP2;P2;SDS_P1;SDS_P2;PMS_P1;PMS_P2;Temp;Humidity;BMP_temperature;BMP_pressure;BME280_temperature;BME280_humidity;BME280_pressure;Samples;Min_cycle;Max_cycle;Signal;HPM_P1;HPM_P2
2023/05/22 00:03:02;;;;;;;3.20;3.10;;;;;;;;;;10436903;28;20222;-79
2023/05/22 00:08:03;;;;;;;3.50;3.08;;;;;;;;;;10483831;28;21079;-79
2023/05/22 00:13:04;;;;;;;4.30;3.15;;;;;;;;;;10463067;28;20213;-78
2023/05/22 00:18:07;;;;;;;3.38;3.15;;;;;;;;;;10456482;28;20213;-78
2023/05/22 00:23:09;;;;;;;3.28;3.08;;;;;;;;;;10451041;28;20614;-79
2023/05/22 00:28:12;;;;;;;4.55;3.03;;;;;;;;;;10445728;28;20332;-78
2023/05/22 00:33:13;;;;;;;4.05;3.75;;;;;;;;;;10477796;28;20214;-79
2023/05/22 00:38:28;;;;;;;3.35;3.25;;;;;;;;;;10457373;28;20213;-78
2023/05/22 00:43:29;;;;;;;3.35;3.25;;;;;;;;;;10463276;28;20213;-80
2023/05/22 00:48:30;;;;;;;3.33;3.05;;;;;;;;;;10455087;28;21202;-78
2023/05/22 00:53:31;;;;;;;3.03;2.53;;;;;;;;;;10459204;28;20604;-76
2023/05/22 00:58:32;;;;;;;2.90;2.80;;;;;;;;;;10454413;28;20230;-78
2023/05/22 01:03:33;;;;;;;3.17;3.00;;;;;;;;;;10454928;28;20214;-78
2023/05/22 01:08:34;;;;;;;4.30;3.15;;;;;;;;;;10482857;28;20210;-79
2023/05/22 01:13:55;;;;;;;5.35;2.80;;;;;;;;;;10455487;28;20831;-80
2023/05/22 01:19:05;;;;;;;3.20;3.00;;;;;;;;;;10458396;28;20217;-76
2023/05/22 01:24:14;;;;;;;2.97;2.80;;;;;;;;;;10475301;28;20213;-76
2023/05/22 01:29:30;;;;;;;3.85;2.90;;;;;;;;;;10466910;28;20221;-79
2023/05/22 01:34:35;;;;;;;2.95;2.85;;;;;;;;;;10458742;28;20229;-77
2023/05/22 01:39:36;;;;;;;3.05;2.95;;;;;;;;;;10454362;28;20329;-76
2023/05/22 01:44:37;;;;;;;3.00;2.90;;;;;;;;;;10441370;28;20218;-78
2023/05/22 01:49:39;;;;;;;3.60;3.17;;;;;;;;;;10439935;28;20210;-77
2023/05/22 01:54:51;;;;;;;3.00;2.90;;;;;;;;;;10487263;28;22133;-78
2023/05/22 01:59:54;;;;;;;4.30;2.88;;;;;;;;;;10453510;28;20260;-78
2023/05/22 02:04:57;;;;;;;3.22;3.00;;;;;;;;;;10437356;28;20275;-78
2023/05/22 02:09:58;;;;;;;3.50;3.25;;;;;;;;;;10455148;28;20284;-75
2023/05/22 02:15:00;;;;;;;3.50;3.30;;;;;;;;;;10447104;28;20224;-77
2023/05/22 02:20:01;;;;;;;2.90;2.80;;;;;;;;;;10456439;28;20963;-76
2023/05/22 02:25:05;;;;;;;3.22;3.13;;;;;;;;;;10473856;28;20715;-79
2023/05/22 02:30:07;;;;;;;3.00;2.90;;;;;;;;;;10479014;28;20223;-79
2023/05/22 02:35:09;;;;;;;3.05;2.85;;;;;;;;;;10448409;28;20217;-74
2023/05/22 02:40:10;;;;;;;3.00;2.85;;;;;;;;;;10449644;28;20210;-79
2023/05/22 02:45:11;;;;;;;3.38;3.20;;;;;;;;;;10470929;28;20226;-80
2023/05/22 02:50:13;;;;;;;3.10;2.90;;;;;;;;;;10465991;28;20218;-78
2023/05/22 02:55:14;;;;;;;3.25;2.92;;;;;;;;;;10460978;28;20304;-77
2023/05/22 03:00:15;;;;;;;2.72;2.60;;;;;;;;;;10436055;28;20219;-80
2023/05/22 03:05:17;;;;;;;3.10;2.90;;;;;;;;;;10454917;28;20209;-78
2023/05/22 03:10:18;;;;;;;4.15;3.28;;;;;;;;;;10473900;28;20213;-78
2023/05/22 03:15:20;;;;;;;4.95;3.42;;;;;;;;;;10443216;28;20308;-78
2023/05/22 03:20:22;;;;;;;3.55;3.35;;;;;;;;;;10431345;28;22770;-79
2023/05/22 03:25:23;;;;;;;3.05;2.88;;;;;;;;;;10451510;28;20323;-79
2023/05/22 03:30:24;;;;;;;3.50;3.40;;;;;;;;;;10481982;28;20805;-79
2023/05/22 03:35:39;;;;;;;5.10;3.28;;;;;;;;;;10457785;28;20304;-80
2023/05/22 03:40:40;;;;;;;3.88;3.53;;;;;;;;;;10459907;28;20293;-77
2023/05/22 03:45:42;;;;;;;3.75;3.45;;;;;;;;;;10464741;28;20275;-81
2023/05/22 03:50:43;;;;;;;3.92;3.63;;;;;;;;;;10464390;28;20691;-78
2023/05/22 03:55:44;;;;;;;3.85;3.65;;;;;;;;;;10477041;28;20213;-79
2023/05/22 04:00:45;;;;;;;4.55;4.03;;;;;;;;;;10459669;28;21298;-79
2023/05/22 04:05:46;;;;;;;5.05;4.78;;;;;;;;;;10445231;28;20221;-78
2023/05/22 04:10:48;;;;;;;3.50;3.40;;;;;;;;;;10454355;28;20240;-77
2023/05/22 04:15:49;;;;;;;4.15;3.85;;;;;;;;;;10472408;28;20495;-81
2023/05/22 04:20:50;;;;;;;3.63;3.25;;;;;;;;;;10469267;28;20244;-80
2023/05/22 04:25:54;;;;;;;9.23;3.72;;;;;;;;;;10449827;28;20278;-81
2023/05/22 04:30:58;;;;;;;4.07;3.70;;;;;;;;;;10471812;28;20623;-80
2023/05/22 04:36:01;;;;;;;4.30;4.00;;;;;;;;;;10453022;28;20221;-79
2023/05/22 04:41:02;;;;;;;3.60;3.50;;;;;;;;;;10463887;28;20218;-81
2023/05/22 04:46:04;;;;;;;4.47;3.70;;;;;;;;;;10462442;28;20981;-78
2023/05/22 04:51:05;;;;;;;4.40;3.88;;;;;;;;;;10467348;28;20217;-78
2023/05/22 04:56:06;;;;;;;3.60;3.40;;;;;;;;;;10444392;28;20279;-80
2023/05/22 05:01:08;;;;;;;7.82;4.00;;;;;;;;;;10436230;28;20253;-77
2023/05/22 05:06:11;;;;;;;3.97;3.78;;;;;;;;;;10471327;28;20244;-78
2023/05/22 05:11:12;;;;;;;3.90;3.67;;;;;;;;;;10454695;28;20318;-81
2023/05/22 05:16:13;;;;;;;4.72;3.45;;;;;;;;;;10453480;28;21076;-79
2023/05/22 05:21:14;;;;;;;4.85;3.88;;;;;;;;;;10458361;28;20254;-79
2023/05/22 05:26:15;;;;;;;5.18;4.30;;;;;;;;;;10450412;28;20214;-79
2023/05/22 05:31:17;;;;;;;4.05;3.85;;;;;;;;;;10443148;28;20233;-80
2023/05/22 05:36:33;;;;;;;3.42;3.22;;;;;;;;;;10432113;28;20213;-78
2023/05/22 05:41:34;;;;;;;3.70;3.50;;;;;;;;;;10452674;28;20578;-80
2023/05/22 05:46:41;;;;;;;3.35;3.25;;;;;;;;;;10442301;28;20244;-80
2023/05/22 05:51:43;;;;;;;4.38;3.88;;;;;;;;;;10447193;28;20222;-79
2023/05/22 05:56:45;;;;;;;3.65;3.40;;;;;;;;;;10459504;28;20355;-78
2023/05/22 06:01:48;;;;;;;4.00;3.33;;;;;;;;;;10443286;28;20232;-78
2023/05/22 06:06:56;;;;;;;3.10;2.95;;;;;;;;;;10457738;28;20338;-79
2023/05/22 06:12:17;;;;;;;3.20;3.03;;;;;;;;;;10444225;28;22177;-77
2023/05/22 06:17:19;;;;;;;3.50;3.20;;;;;;;;;;10447325;28;20218;-79
2023/05/22 06:22:24;;;;;;;3.83;3.53;;;;;;;;;;10447089;28;20247;-81
2023/05/22 06:27:26;;;;;;;3.38;3.20;;;;;;;;;;10445518;28;20210;-77
2023/05/22 06:32:28;;;;;;;3.33;3.22;;;;;;;;;;10447883;28;20198;-81
2023/05/22 06:37:34;;;;;;;3.88;3.58;;;;;;;;;;10437279;28;20225;-79
2023/05/22 06:42:35;;;;;;;4.00;3.70;;;;;;;;;;10459680;28;20266;-81
2023/05/22 06:48:02;;;;;;;4.70;3.17;;;;;;;;;;10442693;28;20242;-82
2023/05/22 06:53:06;;;;;;;10.43;3.20;;;;;;;;;;10455087;28;20290;-81
2023/05/22 06:58:08;;;;;;;2.88;2.78;;;;;;;;;;10441760;28;20222;-81
2023/05/22 07:03:10;;;;;;;4.03;3.50;;;;;;;;;;10440658;28;20308;-80
2023/05/22 07:08:35;;;;;;;3.80;3.70;;;;;;;;;;10444927;28;20221;-80
2023/05/22 07:13:36;;;;;;;4.63;3.42;;;;;;;;;;10447942;28;20319;-84
2023/05/22 07:18:39;;;;;;;3.65;3.50;;;;;;;;;;10464043;28;20217;-81
2023/05/22 07:23:40;;;;;;;3.95;3.17;;;;;;;;;;10479948;28;20222;-79
2023/05/22 07:28:42;;;;;;;3.83;3.60;;;;;;;;;;10479027;28;20811;-79
2023/05/22 07:33:47;;;;;;;3.85;3.65;;;;;;;;;;10465023;28;20266;-79
2023/05/22 07:38:50;;;;;;;3.53;3.33;;;;;;;;;;10476737;28;20333;-80
2023/05/22 07:43:51;;;;;;;4.15;3.97;;;;;;;;;;10450708;28;20220;-80
2023/05/22 07:48:56;;;;;;;3.50;3.40;;;;;;;;;;10448292;28;20210;-78
2023/05/22 07:53:58;;;;;;;3.45;3.35;;;;;;;;;;10481807;28;20213;-79
2023/05/22 07:58:59;;;;;;;3.90;3.60;;;;;;;;;;10491857;28;20613;-80
2023/05/22 08:04:00;;;;;;;3.60;3.50;;;;;;;;;;10444023;28;20214;-81
2023/05/22 08:09:03;;;;;;;4.30;3.92;;;;;;;;;;10459075;28;20229;-79
2023/05/22 08:14:06;;;;;;;7.60;3.67;;;;;;;;;;10478059;28;22035;-79
2023/05/22 08:19:07;;;;;;;4.78;3.30;;;;;;;;;;10471205;28;20221;-80
2023/05/22 08:24:08;;;;;;;4.10;3.60;;;;;;;;;;10464012;28;20239;-79
2023/05/22 08:29:10;;;;;;;4.72;3.58;;;;;;;;;;10424401;28;20227;-79
2023/05/22 08:34:11;;;;;;;3.67;3.58;;;;;;;;;;10460723;28;20214;-79
2023/05/22 08:39:13;;;;;;;3.47;3.35;;;;;;;;;;10451909;28;20291;-79
2023/05/22 08:44:15;;;;;;;6.90;3.67;;;;;;;;;;10450987;28;20225;-79
2023/05/22 08:49:17;;;;;;;3.88;3.58;;;;;;;;;;10444607;28;20209;-79
2023/05/22 08:54:23;;;;;;;4.55;4.28;;;;;;;;;;10450085;28;20770;-79
2023/05/22 08:59:25;;;;;;;3.60;3.40;;;;;;;;;;10442042;28;20217;-80
2023/05/22 09:04:27;;;;;;;3.95;3.65;;;;;;;;;;10472401;28;20214;-78
2023/05/22 09:09:28;;;;;;;5.30;3.25;;;;;;;;;;10478711;28;20222;-77
2023/05/22 09:14:37;;;;;;;3.40;3.20;;;;;;;;;;10459542;28;20882;-80
2023/05/22 09:19:38;;;;;;;3.50;3.20;;;;;;;;;;10468275;28;20847;-77
2023/05/22 09:24:44;;;;;;;3.60;3.40;;;;;;;;;;10450425;28;20619;-77
2023/05/22 09:29:52;;;;;;;5.55;3.20;;;;;;;;;;10471398;28;20320;-77
2023/05/22 09:34:53;;;;;;;3.35;3.15;;;;;;;;;;10464561;28;20618;-77
2023/05/22 09:39:56;;;;;;;5.18;3.25;;;;;;;;;;10450063;28;20210;-77
2023/05/22 09:45:02;;;;;;;3.97;3.67;;;;;;;;;;10465447;28;20605;-78
2023/05/22 09:50:05;;;;;;;3.55;3.30;;;;;;;;;;10472988;28;20257;-78
2023/05/22 09:55:07;;;;;;;3.28;3.17;;;;;;;;;;10450939;28;20210;-76
2023/05/22 10:00:11;;;;;;;3.45;3.17;;;;;;;;;;10448353;28;20225;-78
2023/05/22 10:05:20;;;;;;;3.17;2.97;;;;;;;;;;10469767;28;20960;-77
2023/05/22 10:10:22;;;;;;;3.05;2.95;;;;;;;;;;10435141;28;20220;-77
2023/05/22 10:15:24;;;;;;;3.30;3.20;;;;;;;;;;10444637;28;20247;-78
2023/05/22 10:20:26;;;;;;;3.13;2.92;;;;;;;;;;10431739;28;20214;-78
2023/05/22 10:25:27;;;;;;;3.53;3.30;;;;;;;;;;10441924;28;20329;-77
2023/05/22 10:30:41;;;;;;;3.55;2.72;;;;;;;;;;10468825;28;20225;-80
2023/05/22 10:36:09;;;;;;;3.20;3.00;;;;;;;;;;10464680;28;20280;-77
2023/05/22 10:41:10;;;;;;;3.03;2.92;;;;;;;;;;10460593;28;20222;-82
2023/05/22 10:46:12;;;;;;;3.05;2.95;;;;;;;;;;10445871;28;20245;-79
2023/05/22 10:51:13;;;;;;;3.28;3.05;;;;;;;;;;10464688;28;20218;-78
2023/05/22 10:56:18;;;;;;;2.67;2.67;;;;;;;;;;10428349;28;20224;-80
2023/05/22 11:01:19;;;;;;;3.42;3.33;;;;;;;;;;10457995;28;20246;-78
2023/05/22 11:06:39;;;;;;;3.10;2.90;;;;;;;;;;10459174;28;20221;-79
2023/05/22 11:11:40;;;;;;;3.17;2.85;;;;;;;;;;10481318;28;20227;-78
2023/05/22 11:16:41;;;;;;;3.63;2.47;;;;;;;;;;10479067;28;20258;-74
2023/05/22 11:21:43;;;;;;;2.28;2.28;;;;;;;;;;10450045;28;20217;-76
2023/05/22 11:27:00;;;;;;;2.58;2.47;;;;;;;;;;10441991;28;20642;-77
2023/05/22 11:32:01;;;;;;;4.22;2.50;;;;;;;;;;10444673;28;20466;-78
2023/05/22 11:37:02;;;;;;;3.13;2.30;;;;;;;;;;10475145;28;20253;-79
2023/05/22 11:42:04;;;;;;;3.70;2.78;;;;;;;;;;10449014;28;20300;-79
2023/05/22 11:47:05;;;;;;;2.60;2.55;;;;;;;;;;10456353;28;20213;-81
2023/05/22 11:52:07;;;;;;;2.90;2.70;;;;;;;;;;10439963;28;20218;-78
2023/05/22 11:57:08;;;;;;;2.80;2.70;;;;;;;;;;10452847;28;20293;-81
2023/05/22 12:02:09;;;;;;;2.45;2.35;;;;;;;;;;10457438;28;20233;-80
2023/05/22 12:07:10;;;;;;;2.65;2.60;;;;;;;;;;10480337;28;20226;-81
2023/05/22 12:12:11;;;;;;;2.88;2.78;;;;;;;;;;10473869;28;21037;-81
2023/05/22 12:17:13;;;;;;;6.22;2.58;;;;;;;;;;10477091;28;20218;-81
2023/05/22 12:22:15;;;;;;;2.70;2.53;;;;;;;;;;10453153;28;20232;-82
2023/05/22 12:27:16;;;;;;;2.38;2.28;;;;;;;;;;10476594;28;20224;-80
2023/05/22 12:32:21;;;;;;;2.42;2.22;;;;;;;;;;10444484;28;23866;-80
2023/05/22 12:37:26;;;;;;;2.60;2.60;;;;;;;;;;10466962;28;20221;-81
2023/05/22 12:42:28;;;;;;;3.45;3.08;;;;;;;;;;10446994;28;20375;-82
2023/05/22 12:47:29;;;;;;;2.90;2.80;;;;;;;;;;10475442;28;20246;-82
2023/05/22 12:52:30;;;;;;;2.72;2.72;;;;;;;;;;10477397;28;20239;-80
2023/05/22 12:57:31;;;;;;;3.53;3.20;;;;;;;;;;10460308;28;20220;-81
2023/05/22 13:02:32;;;;;;;2.80;2.70;;;;;;;;;;10444947;28;20216;-80
2023/05/22 13:07:33;;;;;;;3.47;3.38;;;;;;;;;;10452169;28;20217;-82
2023/05/22 13:12:34;;;;;;;3.58;3.25;;;;;;;;;;10458523;28;20221;-80
2023/05/22 13:17:35;;;;;;;2.72;2.72;;;;;;;;;;10455073;28;20218;-80
2023/05/22 13:22:37;;;;;;;4.00;2.65;;;;;;;;;;10478726;28;20217;-80
2023/05/22 13:27:38;;;;;;;3.15;3.05;;;;;;;;;;10464375;28;20221;-79
2023/05/22 13:32:39;;;;;;;2.72;2.63;;;;;;;;;;10467560;28;20214;-81
2023/05/22 13:37:40;;;;;;;2.97;2.78;;;;;;;;;;10484546;28;20919;-80
2023/05/22 13:42:41;;;;;;;3.17;3.00;;;;;;;;;;10441334;28;20233;-80
2023/05/22 13:47:42;;;;;;;3.35;3.15;;;;;;;;;;10463532;28;20230;-80
2023/05/22 13:52:43;;;;;;;3.20;3.10;;;;;;;;;;10464332;28;20217;-81
2023/05/22 13:57:44;;;;;;;4.05;3.17;;;;;;;;;;10438238;28;20214;-82
2023/05/22 14:02:45;;;;;;;3.90;3.20;;;;;;;;;;10468241;28;20213;-82
2023/05/22 14:07:46;;;;;;;12.32;2.70;;;;;;;;;;10436265;28;20843;-82
2023/05/22 14:12:47;;;;;;;4.43;2.88;;;;;;;;;;10454710;28;20217;-81
2023/05/22 14:17:48;;;;;;;3.15;2.92;;;;;;;;;;10475068;28;21008;-82
2023/05/22 14:22:49;;;;;;;2.67;2.47;;;;;;;;;;10467225;28;20224;-80
2023/05/22 14:27:50;;;;;;;2.97;2.95;;;;;;;;;;10481920;28;20371;-83
2023/05/22 14:32:51;;;;;;;3.33;3.13;;;;;;;;;;10475337;28;20217;-80
2023/05/22 14:37:52;;;;;;;3.00;2.83;;;;;;;;;;10462027;28;20222;-81
2023/05/22 14:42:53;;;;;;;2.50;2.30;;;;;;;;;;10483070;28;20280;-82
2023/05/22 14:47:54;;;;;;;2.88;2.67;;;;;;;;;;10453781;28;20255;-81
2023/05/22 14:52:55;;;;;;;2.20;2.20;;;;;;;;;;10444326;28;20258;-82
2023/05/22 14:57:56;;;;;;;2.35;2.25;;;;;;;;;;10454619;28;20286;-80
2023/05/22 15:02:57;;;;;;;2.80;2.70;;;;;;;;;;10473196;28;20233;-81
2023/05/22 15:07:59;;;;;;;3.22;3.03;;;;;;;;;;10478674;28;20214;-80
2023/05/22 15:13:00;;;;;;;2.67;2.58;;;;;;;;;;10448237;28;20619;-80
2023/05/22 15:18:03;;;;;;;4.80;3.08;;;;;;;;;;10449001;28;20222;-79
2023/05/22 15:23:05;;;;;;;2.40;2.40;;;;;;;;;;10468552;28;20222;-81
2023/05/22 15:28:06;;;;;;;2.53;2.50;;;;;;;;;;10462620;28;20247;-80
2023/05/22 15:33:07;;;;;;;4.20;2.38;;;;;;;;;;10445690;28;20275;-81
2023/05/22 15:38:12;;;;;;;1.95;1.85;;;;;;;;;;10465824;28;20222;-80
2023/05/22 15:43:13;;;;;;;2.72;2.58;;;;;;;;;;10463212;28;20210;-82
2023/05/22 15:48:15;;;;;;;1.90;1.83;;;;;;;;;;10470442;28;20225;-80
2023/05/22 15:53:16;;;;;;;3.20;2.20;;;;;;;;;;10467546;28;20316;-80
2023/05/22 15:58:17;;;;;;;2.08;2.05;;;;;;;;;;10459408;28;20218;-82
2023/05/22 16:03:18;;;;;;;2.25;2.25;;;;;;;;;;10461876;28;20625;-80
2023/05/22 16:08:19;;;;;;;2.13;2.00;;;;;;;;;;10468576;28;20213;-80
2023/05/22 16:13:20;;;;;;;4.85;2.30;;;;;;;;;;10460400;28;20217;-81
2023/05/22 16:18:22;;;;;;;2.42;2.33;;;;;;;;;;10460607;28;20218;-80
2023/05/22 16:23:23;;;;;;;2.65;2.50;;;;;;;;;;10470832;28;20221;-82
2023/05/22 16:28:25;;;;;;;2.03;1.92;;;;;;;;;;10479898;28;20225;-80
2023/05/22 16:33:26;;;;;;;3.70;2.58;;;;;;;;;;10462199;28;20218;-80
2023/05/22 16:38:27;;;;;;;2.40;2.30;;;;;;;;;;10469219;28;20217;-81
2023/05/22 16:43:28;;;;;;;2.42;2.20;;;;;;;;;;10458463;28;20218;-81
2023/05/22 16:48:29;;;;;;;2.75;2.63;;;;;;;;;;10474062;28;20210;-81
2023/05/22 16:53:30;;;;;;;2.38;2.15;;;;;;;;;;10455030;28;20402;-83
2023/05/22 16:58:31;;;;;;;2.33;2.30;;;;;;;;;;10443661;28;20284;-80
2023/05/22 17:03:32;;;;;;;2.67;2.53;;;;;;;;;;10469134;28;20217;-80
2023/05/22 17:08:33;;;;;;;2.90;2.50;;;;;;;;;;10498424;28;20213;-81
2023/05/22 17:19:01;;;;;;;3.47;2.22;;;;;;;;;;10483538;28;20214;-80
2023/05/22 17:24:02;;;;;;;2.78;2.67;;;;;;;;;;10462154;28;20275;-81
2023/05/22 17:29:04;;;;;;;2.25;2.25;;;;;;;;;;10464065;28;20225;-81
2023/05/22 17:34:05;;;;;;;3.15;2.50;;;;;;;;;;10458737;28;20214;-82
2023/05/22 17:39:06;;;;;;;2.00;2.00;;;;;;;;;;10443462;28;20344;-80
2023/05/22 17:44:07;;;;;;;2.38;2.28;;;;;;;;;;10463737;28;20194;-80
2023/05/22 17:49:08;;;;;;;3.22;2.70;;;;;;;;;;10456302;28;20252;-80
2023/05/22 17:54:09;;;;;;;2.50;2.30;;;;;;;;;;10445060;28;20213;-80
2023/05/22 17:59:10;;;;;;;2.28;2.28;;;;;;;;;;10442526;28;20229;-80
2023/05/22 18:04:11;;;;;;;2.35;2.28;;;;;;;;;;10444657;28;20214;-80
2023/05/22 18:09:12;;;;;;;2.60;2.50;;;;;;;;;;10457179;28;20238;-81
2023/05/22 18:14:13;;;;;;;2.35;2.35;;;;;;;;;;10465736;28;20228;-81
2023/05/22 18:19:14;;;;;;;3.65;2.35;;;;;;;;;;10465029;28;20248;-83
2023/05/22 18:24:15;;;;;;;2.30;2.20;;;;;;;;;;10460378;28;20227;-78
2023/05/22 18:29:17;;;;;;;2.00;2.00;;;;;;;;;;10462769;28;20556;-80
2023/05/22 18:34:18;;;;;;;2.03;1.90;;;;;;;;;;10458788;28;20216;-80
2023/05/22 18:39:19;;;;;;;1.95;1.92;;;;;;;;;;10474790;28;20745;-81
2023/05/22 18:44:22;;;;;;;3.20;2.53;;;;;;;;;;10436470;28;20213;-81
2023/05/22 18:49:23;;;;;;;7.40;1.90;;;;;;;;;;10476107;28;20821;-81
2023/05/22 18:54:24;;;;;;;1.70;1.60;;;;;;;;;;10477231;28;20214;-81
2023/05/22 18:59:25;;;;;;;2.53;2.35;;;;;;;;;;10468482;28;20214;-82
2023/05/22 19:04:26;;;;;;;2.00;1.90;;;;;;;;;;10462689;28;20218;-81
2023/05/22 19:09:27;;;;;;;1.98;1.88;;;;;;;;;;10486006;28;20238;-81
2023/05/22 19:14:28;;;;;;;1.58;1.58;;;;;;;;;;10475218;28;20288;-82
2023/05/22 19:19:29;;;;;;;1.67;1.67;;;;;;;;;;10461571;28;20804;-80
2023/05/22 19:24:30;;;;;;;2.55;1.40;;;;;;;;;;10447796;28;20694;-81
2023/05/22 19:29:31;;;;;;;1.85;1.63;;;;;;;;;;10463619;28;21034;-80
2023/05/22 19:34:32;;;;;;;1.83;1.73;;;;;;;;;;10446900;28;20248;-80
2023/05/22 19:45:27;;;;;;;2.92;1.60;;;;;;;;;;10442909;28;20644;-80
2023/05/22 19:50:29;;;;;;;1.83;1.73;;;;;;;;;;10475360;28;20222;-80
2023/05/22 19:55:30;;;;;;;1.50;1.40;;;;;;;;;;10468298;28;20225;-80
2023/05/22 20:00:32;;;;;;;2.97;1.88;;;;;;;;;;10462482;28;20234;-78
2023/05/22 20:05:33;;;;;;;1.90;1.50;;;;;;;;;;10457066;28;20233;-80
2023/05/22 20:10:34;;;;;;;1.65;1.65;;;;;;;;;;10480057;28;20304;-78
2023/05/22 20:15:36;;;;;;;2.88;2.00;;;;;;;;;;10442695;28;20221;-79
2023/05/22 20:20:37;;;;;;;2.22;1.77;;;;;;;;;;10475820;28;20296;-80
2023/05/22 20:25:39;;;;;;;1.67;1.55;;;;;;;;;;10480971;28;20978;-82
2023/05/22 20:30:40;;;;;;;1.55;1.55;;;;;;;;;;10466693;28;20322;-80
2023/05/22 20:35:41;;;;;;;1.60;1.60;;;;;;;;;;10477964;28;20243;-83
2023/05/22 20:40:45;;;;;;;1.80;1.77;;;;;;;;;;10468339;28;20214;-79
2023/05/22 20:45:46;;;;;;;1.90;1.90;;;;;;;;;;10481390;28;20238;-79
2023/05/22 20:50:49;;;;;;;1.45;1.45;;;;;;;;;;10473412;28;20383;-79
2023/05/22 20:55:52;;;;;;;2.75;1.75;;;;;;;;;;10477751;28;20610;-82
2023/05/22 21:00:53;;;;;;;1.65;1.55;;;;;;;;;;10468075;28;20222;-79
2023/05/22 21:05:54;;;;;;;1.83;1.73;;;;;;;;;;10482142;28;20233;-80
2023/05/22 21:10:55;;;;;;;4.13;1.60;;;;;;;;;;10505768;28;20217;-80
2023/05/22 21:15:56;;;;;;;3.05;2.40;;;;;;;;;;10485003;28;20698;-80
2023/05/22 21:20:57;;;;;;;2.47;2.38;;;;;;;;;;10478012;28;20640;-80
2023/05/22 21:25:58;;;;;;;5.60;2.10;;;;;;;;;;10467016;28;20320;-79
2023/05/22 21:30:59;;;;;;;1.88;1.52;;;;;;;;;;10455950;28;20279;-82
2023/05/22 21:36:00;;;;;;;2.05;2.05;;;;;;;;;;10481656;28;20644;-81
2023/05/22 21:41:01;;;;;;;2.58;2.13;;;;;;;;;;10466355;28;20221;-80
2023/05/22 21:46:02;;;;;;;3.17;2.97;;;;;;;;;;10450388;28;20290;-82
2023/05/22 21:51:03;;;;;;;4.57;4.28;;;;;;;;;;10472494;28;20225;-80
2023/05/22 21:56:04;;;;;;;6.55;3.83;;;;;;;;;;10448633;28;20301;-80
2023/05/22 22:01:05;;;;;;;4.07;3.88;;;;;;;;;;10479245;28;20263;-79
2023/05/22 22:06:06;;;;;;;4.95;4.45;;;;;;;;;;10465178;28;20695;-79
2023/05/22 22:11:07;;;;;;;5.15;4.70;;;;;;;;;;10485489;28;20224;-79
2023/05/22 22:16:08;;;;;;;5.57;4.40;;;;;;;;;;10463079;28;20218;-79
2023/05/22 22:21:09;;;;;;;5.13;4.47;;;;;;;;;;10471969;28;20323;-81
2023/05/22 22:26:13;;;;;;;4.88;4.18;;;;;;;;;;10485721;28;20218;-78
2023/05/22 22:31:14;;;;;;;5.25;4.75;;;;;;;;;;10485229;28;21010;-81
2023/05/22 22:36:15;;;;;;;5.00;4.50;;;;;;;;;;10484233;28;20221;-79
2023/05/22 22:41:16;;;;;;;10.32;4.97;;;;;;;;;;10478367;28;20221;-80
2023/05/22 22:46:17;;;;;;;4.93;4.15;;;;;;;;;;10448905;28;20727;-80
2023/05/22 22:51:18;;;;;;;4.50;4.30;;;;;;;;;;10469679;28;20894;-81
2023/05/22 22:56:19;;;;;;;4.70;4.30;;;;;;;;;;10458659;28;20292;-81
2023/05/22 23:01:20;;;;;;;4.78;4.38;;;;;;;;;;10457720;28;20214;-78
2023/05/22 23:06:22;;;;;;;5.18;4.85;;;;;;;;;;10473213;28;20940;-78
2023/05/22 23:11:25;;;;;;;5.32;4.82;;;;;;;;;;10478932;28;20245;-78
2023/05/22 23:16:26;;;;;;;5.07;4.60;;;;;;;;;;10475394;28;20743;-81
2023/05/22 23:21:27;;;;;;;4.63;4.43;;;;;;;;;;10463368;28;20209;-80
2023/05/22 23:26:29;;;;;;;5.05;4.75;;;;;;;;;;10446513;28;20224;-81
2023/05/22 23:31:30;;;;;;;4.75;4.45;;;;;;;;;;10462599;28;20229;-81
2023/05/22 23:36:32;;;;;;;4.60;4.40;;;;;;;;;;10478562;28;20217;-80
2023/05/22 23:41:34;;;;;;;4.53;4.13;;;;;;;;;;10478954;28;20218;-81
2023/05/22 23:46:36;;;;;;;4.82;4.63;;;;;;;;;;10464799;28;20230;-83
2023/05/22 23:51:37;;;;;;;5.20;4.88;;;;;;;;;;10456467;28;20225;-79
2023/05/22 23:56:38;;;;;;;5.53;5.15;;;;;;;;;;10478036;28;20221;-80
